Time;durP1;ratioP1;P1;durP2;ratioP2;P2;SDS_P1;SDS_P2;PMS_P1;PMS_P2;Temp;Humidity;BMP_temperature;BMP_pressure;BME280_temperature;BME280_humidity;BME280_pressure;Samples;Min_cycle;Max_cycle;Signal;HPM_P1;HPM_P2
2023/04/18 00:11:23;;;;;;;46.00;39.10;;;30.60;74.60;;;;;;1967676;72;22225;-83
2023/04/18 00:17:44;;;;;;;46.85;38.85;;;30.70;73.70;;;;;;1908530;73;21139;-85
2023/04/18 00:20:16;;;;;;;46.33;38.58;;;30.70;73.10;;;;;;1965889;72;21085;-84
2023/04/18 00:22:51;;;;;;;45.03;40.05;;;30.80;73.40;;;;;;1924864;74;21075;-84
2023/04/18 00:25:34;;;;;;;44.88;39.83;;;30.90;73.10;;;;;;1934652;71;21160;-85
2023/04/18 00:28:09;;;;;;;50.28;41.63;;;30.90;73.70;;;;;;1985941;71;21188;-85
2023/04/18 00:30:55;;;;;;;51.02;39.78;;;30.90;73.40;;;;;;1945870;73;21104;-84
2023/04/18 00:33:34;;;;;;;49.77;40.73;;;31.00;73.50;;;;;;1971873;72;21894;-86
2023/04/18 00:36:08;;;;;;;48.38;38.05;;;30.90;72.40;;;;;;1986420;72;21060;-83
2023/04/18 00:38:42;;;;;;;44.20;39.33;;;31.00;71.80;;;;;;1935377;72;21184;-84
2023/04/18 00:41:19;;;;;;;50.23;40.95;;;31.00;71.70;;;;;;1954828;72;21563;-84
2023/04/18 00:43:51;;;;;;;47.45;40.45;;;31.00;72.10;;;;;;1940096;74;21076;-85
2023/04/18 00:50:11;;;;;;;47.40;40.00;;;31.10;71.10;;;;;;1983560;71;21079;-84
2023/04/18 00:52:49;;;;;;;51.95;40.35;;;31.10;70.50;;;;;;1957848;72;21078;-84
2023/04/18 00:55:43;;;;;;;52.50;39.98;;;31.20;70.90;;;;;;1947918;73;21943;-84
2023/04/18 00:58:18;;;;;;;52.80;41.30;;;31.20;70.10;;;;;;1939848;73;21064;-85
2023/04/18 01:00:56;;;;;;;46.98;38.63;;;31.30;70.00;;;;;;1925266;74;21680;-84
2023/04/18 01:07:15;;;;;;;46.48;38.70;;;31.40;69.20;;;;;;1943280;71;21695;-85
2023/04/18 01:09:52;;;;;;;44.83;37.65;;;31.60;69.00;;;;;;1980773;72;21146;-85
2023/04/18 01:12:28;;;;;;;42.88;37.35;;;31.50;68.70;;;;;;1961935;73;21102;-86
2023/04/18 01:15:13;;;;;;;48.68;37.50;;;31.50;68.20;;;;;;1965470;72;21160;-86
2023/04/18 01:17:48;;;;;;;47.17;37.55;;;31.60;68.60;;;;;;1959815;73;21158;-85
2023/04/18 01:20:19;;;;;;;48.98;38.88;;;31.60;68.40;;;;;;1962465;73;21525;-85
2023/04/18 01:23:20;;;;;;;49.53;38.10;;;31.70;68.20;;;;;;1951823;73;21145;-84
2023/04/18 01:26:22;;;;;;;47.03;37.58;;;31.70;67.40;;;;;;1956928;73;21104;-85
2023/04/18 01:29:09;;;;;;;;;;;;;;;;;;;;;
2023/04/18 01:32:12;;;;;;;48.63;38.35;;;31.70;66.90;;;;;;1879522;74;21060;-85
2023/04/18 01:39:22;;;;;;;44.25;37.70;;;31.80;66.80;;;;;;1732527;79;21083;-85
2023/04/18 01:55:29;;;;;;;47.60;39.45;;;32.00;66.50;;;;;;1959587;72;20266;-79
2023/04/18 01:58:01;;;;;;;46.70;38.20;;;32.30;67.20;;;;;;1942895;72;21489;-81
2023/04/18 02:00:32;;;;;;;41.88;37.35;;;32.30;66.40;;;;;;1963711;72;21123;-80
2023/04/18 02:03:07;;;;;;;44.67;37.48;;;32.30;65.80;;;;;;1965123;72;21213;-81
2023/04/18 02:05:39;;;;;;;45.25;35.28;;;32.40;67.00;;;;;;1972889;72;21890;-80
2023/04/18 02:08:24;;;;;;;;;;;32.40;65.60;;;;;;1962200;72;21142;-80
2023/04/18 02:10:55;;;;;;;44.90;36.30;;;32.50;65.80;;;;;;1946472;72;20208;-80
2023/04/18 02:13:26;;;;;;;40.50;35.88;;;32.60;66.00;;;;;;1903766;74;21147;-81
2023/04/18 02:15:58;;;;;;;43.70;36.58;;;32.80;64.50;;;;;;1957433;72;21079;-80
2023/04/18 02:18:42;;;;;;;39.67;35.08;;;32.80;64.20;;;;;;1954005;72;21141;-80
2023/04/18 02:21:14;;;;;;;45.08;37.67;;;32.90;63.50;;;;;;1958560;72;21120;-80
2023/04/18 02:23:48;;;;;;;45.00;36.58;;;33.00;62.50;;;;;;1951086;72;21798;-79
2023/04/18 02:26:24;;;;;;;44.63;37.58;;;33.10;62.70;;;;;;1966952;72;21127;-79
2023/04/18 02:28:52;;;;;;;41.30;35.88;;;33.20;62.60;;;;;;1973485;72;21185;-81
2023/04/18 02:31:25;;;;;;;42.33;35.68;;;33.30;62.70;;;;;;1974190;72;21112;-81
2023/04/18 02:34:05;;;;;;;41.83;36.05;;;33.30;62.00;;;;;;1964896;72;21532;-82
2023/04/18 02:36:42;;;;;;;39.38;35.13;;;33.40;61.40;;;;;;1960557;72;21227;-80
2023/04/18 02:39:13;;;;;;;42.03;36.13;;;33.50;62.00;;;;;;1963154;72;21671;-81
2023/04/18 02:41:44;;;;;;;41.35;36.75;;;33.50;61.40;;;;;;1954500;72;21111;-81
2023/04/18 02:44:17;;;;;;;39.92;35.65;;;33.60;61.00;;;;;;1947864;72;21238;-81
2023/04/18 02:47:06;;;;;;;43.70;34.67;;;33.70;61.90;;;;;;1957232;72;21618;-82
2023/04/18 02:49:37;;;;;;;44.60;36.60;;;33.80;61.10;;;;;;1958619;72;21638;-81
2023/04/18 02:52:08;;;;;;;42.55;36.83;;;33.80;61.30;;;;;;1957546;72;21119;-82
2023/04/18 02:54:41;;;;;;;42.95;35.45;;;33.90;60.30;;;;;;1961101;72;21178;-82
2023/04/18 02:57:12;;;;;;;46.63;36.23;;;34.00;60.00;;;;;;1952551;72;21161;-83
2023/04/18 02:59:50;;;;;;;42.93;35.30;;;34.00;61.20;;;;;;1951867;73;21103;-82
2023/04/18 03:02:22;;;;;;;46.35;35.13;;;34.10;60.00;;;;;;1952542;73;21312;-81
2023/04/18 03:04:55;;;;;;;41.20;34.70;;;34.20;59.40;;;;;;1955848;73;21106;-81
2023/04/18 03:07:29;;;;;;;37.55;33.15;;;34.30;59.40;;;;;;1943996;73;21813;-84
2023/04/18 03:10:04;;;;;;;39.60;32.45;;;34.50;58.80;;;;;;1949243;73;21075;-81
2023/04/18 03:12:38;;;;;;;36.15;30.43;;;34.50;57.50;;;;;;1950845;73;21176;-82
2023/04/18 03:15:10;;;;;;;37.67;32.00;;;34.60;56.60;;;;;;1954749;73;21563;-82
2023/04/18 03:17:43;;;;;;;37.45;32.55;;;34.70;55.90;;;;;;1945313;73;21565;-83
2023/04/18 03:20:19;;;;;;;37.40;32.28;;;34.80;57.10;;;;;;1953280;73;21066;-81
2023/04/18 03:22:47;;;;;;;35.50;31.60;;;34.90;56.70;;;;;;1881032;76;21180;-82
2023/04/18 03:25:18;;;;;;;35.30;31.50;;;35.00;56.00;;;;;;1890882;75;21138;-81
2023/04/18 03:27:54;;;;;;;33.08;29.35;;;35.10;55.30;;;;;;1871061;76;21192;-81
2023/04/18 03:30:22;;;;;;;34.67;29.77;;;35.20;55.50;;;;;;1861712;76;21185;-80
2023/04/18 03:32:54;;;;;;;41.30;29.50;;;35.30;54.00;;;;;;1866377;76;21609;-80
2023/04/18 03:35:26;;;;;;;33.35;28.62;;;35.40;54.20;;;;;;1897706;75;21145;-82
2023/04/18 03:37:57;;;;;;;35.52;30.15;;;35.50;54.00;;;;;;1849822;77;21155;-82
2023/04/18 03:40:28;;;;;;;32.55;29.20;;;35.60;54.10;;;;;;1902131;75;21535;-82
2023/04/18 03:42:59;;;;;;;45.23;31.33;;;35.70;53.70;;;;;;1880652;76;21150;-83
2023/04/18 03:45:30;;;;;;;37.33;30.55;;;35.80;53.60;;;;;;1914029;75;21535;-82
2023/04/18 03:48:02;;;;;;;37.42;31.10;;;35.80;53.20;;;;;;1909384;75;21146;-81
2023/04/18 03:50:33;;;;;;;37.35;30.27;;;35.80;54.30;;;;;;1916330;75;21503;-80
2023/04/18 03:53:04;;;;;;;35.00;29.75;;;35.90;53.00;;;;;;1880596;76;21177;-81
2023/04/18 03:55:36;;;;;;;33.38;29.55;;;35.90;52.80;;;;;;1910523;74;21181;-83
2023/04/18 03:58:07;;;;;;;37.30;29.77;;;36.00;53.90;;;;;;1884123;75;21116;-81
2023/04/18 04:00:38;;;;;;;36.65;29.85;;;36.10;52.60;;;;;;1883344;75;21633;-81
2023/04/18 04:03:12;;;;;;;34.40;30.70;;;36.10;52.50;;;;;;1876530;75;21132;-81
2023/04/18 04:05:45;;;;;;;36.42;32.05;;;36.20;52.90;;;;;;1872940;75;21194;-82
2023/04/18 04:08:20;;;;;;;35.80;30.75;;;36.20;52.90;;;;;;1900572;75;21411;-82
2023/04/18 04:10:48;;;;;;;39.38;33.67;;;36.20;53.00;;;;;;1879653;75;21569;-83
2023/04/18 04:13:20;;;;;;;41.40;33.92;;;36.30;53.20;;;;;;1898629;75;21185;-82
2023/04/18 04:15:56;;;;;;;42.73;32.88;;;36.40;52.20;;;;;;1875873;76;21594;-84
2023/04/18 04:18:31;;;;;;;36.53;32.73;;;36.50;52.70;;;;;;1867859;75;21272;-81
2023/04/18 04:21:03;;;;;;;35.15;31.52;;;36.50;52.20;;;;;;1972247;72;21127;-81
2023/04/18 04:23:34;;;;;;;36.63;32.08;;;36.50;52.70;;;;;;1915423;75;21602;-83
2023/04/18 04:26:07;;;;;;;42.48;31.33;;;36.60;52.50;;;;;;1914829;75;21072;-81
2023/04/18 04:28:45;;;;;;;37.38;33.28;;;36.70;53.60;;;;;;1903694;75;21170;-82
2023/04/18 04:31:10;;;;;;;38.25;31.75;;;36.80;52.30;;;;;;1958571;72;21641;-81
2023/04/18 04:33:42;;;;;;;36.68;32.08;;;36.80;51.50;;;;;;1956432;72;21639;-83
2023/04/18 04:36:18;;;;;;;39.53;31.57;;;36.80;51.50;;;;;;1913830;75;21120;-82
2023/04/18 04:38:49;;;;;;;34.47;30.83;;;36.90;51.80;;;;;;1913842;75;21129;-80
2023/04/18 04:41:21;;;;;;;42.40;31.48;;;36.90;51.90;;;;;;1972560;72;21802;-82
2023/04/18 04:43:52;;;;;;;37.28;31.80;;;37.00;52.00;;;;;;1965371;72;21136;-81
2023/04/18 04:46:23;;;;;;;43.45;34.85;;;37.00;51.80;;;;;;1953487;72;21071;-82
2023/04/18 04:48:55;;;;;;;37.93;33.67;;;37.10;51.90;;;;;;1954494;72;21561;-83
2023/04/18 04:51:26;;;;;;;42.50;34.90;;;37.20;51.40;;;;;;1951883;72;21167;-84
2023/04/18 04:53:58;;;;;;;40.35;34.43;;;37.20;51.50;;;;;;1960865;72;21659;-81
2023/04/18 04:56:29;;;;;;;43.87;35.43;;;37.30;51.50;;;;;;1954758;72;21114;-83
2023/04/18 04:59:00;;;;;;;39.20;34.88;;;37.30;51.60;;;;;;1962005;72;21104;-81
2023/04/18 05:01:31;;;;;;;40.73;35.40;;;37.40;51.40;;;;;;1969301;72;21208;-81
2023/04/18 05:04:03;;;;;;;41.85;35.00;;;37.40;51.30;;;;;;1965445;72;21366;-83
2023/04/18 05:06:34;;;;;;;37.55;33.83;;;37.50;51.00;;;;;;1952614;72;21840;-81
2023/04/18 05:09:07;;;;;;;36.60;31.85;;;37.60;50.60;;;;;;1960083;72;21177;-81
2023/04/18 05:11:38;;;;;;;42.83;33.98;;;37.60;50.60;;;;;;1960153;72;21544;-82
2023/04/18 05:14:09;;;;;;;41.15;36.05;;;37.60;50.50;;;;;;1961086;72;21104;-82
2023/04/18 05:16:41;;;;;;;36.83;33.13;;;37.70;50.60;;;;;;1958660;72;21109;-82
2023/04/18 05:19:12;;;;;;;37.65;33.48;;;37.80;50.40;;;;;;1982070;72;21076;-81
2023/04/18 05:21:43;;;;;;;35.88;32.23;;;37.80;50.60;;;;;;1940625;72;21646;-82
2023/04/18 05:24:14;;;;;;;37.58;32.15;;;37.80;50.40;;;;;;1924563;74;21130;-83
2023/04/18 05:26:46;;;;;;;37.93;33.23;;;37.80;50.40;;;;;;1955355;72;21036;-84
2023/04/18 05:29:17;;;;;;;39.73;32.05;;;37.90;50.60;;;;;;1953741;72;21157;-84
2023/04/18 05:31:48;;;;;;;38.17;31.80;;;37.90;50.20;;;;;;1964352;72;21489;-84
2023/04/18 05:34:19;;;;;;;40.58;33.80;;;37.90;50.90;;;;;;1956157;72;21110;-84
2023/04/18 05:36:50;;;;;;;39.58;32.90;;;37.90;50.00;;;;;;1957029;73;21056;-84
2023/04/18 05:39:21;;;;;;;36.90;33.00;;;37.90;49.80;;;;;;1965785;73;21123;-77
2023/04/18 05:41:53;;;;;;;36.85;33.00;;;38.00;50.20;;;;;;1972003;72;21123;-74
2023/04/18 05:44:24;;;;;;;161.57;43.83;;;38.00;49.70;;;;;;1956523;72;21104;-74
2023/04/18 05:46:56;;;;;;;40.90;34.23;;;38.00;49.20;;;;;;1948631;72;21213;-76
2023/04/18 05:49:27;;;;;;;37.48;33.48;;;38.00;49.30;;;;;;1970828;72;21122;-75
2023/04/18 05:51:58;;;;;;;37.40;33.65;;;38.00;49.20;;;;;;1947243;72;21179;-75
2023/04/18 05:54:29;;;;;;;36.23;32.67;;;38.00;49.50;;;;;;1929921;72;21176;-74
2023/04/18 05:57:01;;;;;;;41.83;34.85;;;38.00;49.10;;;;;;1929128;74;21164;-76
2023/04/18 05:59:34;;;;;;;37.13;33.28;;;38.00;49.20;;;;;;1981307;72;21172;-74
2023/04/18 06:02:11;;;;;;;37.33;33.10;;;38.00;49.20;;;;;;1949875;72;21395;-74
2023/04/18 06:04:38;;;;;;;36.73;32.98;;;38.10;49.00;;;;;;1977264;72;21032;-76
2023/04/18 06:07:10;;;;;;;36.93;33.02;;;38.20;48.70;;;;;;1973319;72;21621;-75
2023/04/18 06:09:42;;;;;;;38.33;34.25;;;38.20;49.50;;;;;;1910739;74;21060;-75
2023/04/18 06:12:13;;;;;;;39.33;34.85;;;38.10;48.80;;;;;;1885518;75;21209;-75
2023/04/18 06:14:44;;;;;;;40.80;34.85;;;38.10;48.70;;;;;;1891443;75;21079;-76
2023/04/18 06:17:15;;;;;;;38.13;34.23;;;38.10;48.80;;;;;;1911012;75;21225;-75
2023/04/18 06:19:47;;;;;;;37.98;33.95;;;38.10;48.30;;;;;;1881058;75;21135;-75
2023/04/18 06:22:19;;;;;;;39.08;33.45;;;38.10;48.80;;;;;;1874135;75;21112;-74
2023/04/18 06:24:50;;;;;;;37.13;33.10;;;38.10;49.20;;;;;;1904142;74;21172;-74
2023/04/18 06:27:21;;;;;;;38.17;34.25;;;38.10;48.70;;;;;;1899168;75;21167;-76
2023/04/18 06:29:54;;;;;;;38.23;33.60;;;38.20;48.50;;;;;;1915377;74;21095;-75
2023/04/18 06:32:25;;;;;;;38.08;34.10;;;38.20;48.80;;;;;;1914729;74;21180;-76
2023/04/18 06:34:57;;;;;;;39.58;35.38;;;38.30;49.10;;;;;;1882994;75;21223;-75
2023/04/18 06:37:28;;;;;;;39.10;33.92;;;38.20;48.50;;;;;;1893532;75;21087;-74
2023/04/18 06:40:00;;;;;;;40.05;34.58;;;38.20;49.10;;;;;;1915140;74;21083;-76
2023/04/18 06:42:32;;;;;;;39.13;34.33;;;38.20;49.40;;;;;;1911269;74;21103;-75
2023/04/18 06:45:03;;;;;;;37.90;34.10;;;38.20;49.80;;;;;;1907865;74;21199;-77
2023/04/18 06:47:34;;;;;;;41.02;33.45;;;38.20;48.90;;;;;;1915467;74;21064;-75
2023/04/18 06:50:06;;;;;;;38.65;34.85;;;38.20;48.70;;;;;;1913197;74;21216;-75
2023/04/18 06:52:42;;;;;;;37.85;33.78;;;38.30;48.60;;;;;;1920894;74;21582;-76
2023/04/18 06:55:12;;;;;;;39.30;33.40;;;38.20;48.70;;;;;;1918975;73;21623;-74
2023/04/18 06:57:44;;;;;;;37.15;33.28;;;38.20;48.60;;;;;;1880170;76;21163;-76
2023/04/18 07:00:16;;;;;;;38.60;34.58;;;38.20;48.70;;;;;;1905490;74;21217;-74
2023/04/18 07:02:48;;;;;;;41.90;35.30;;;38.20;48.40;;;;;;1902879;74;21556;-74
2023/04/18 07:05:20;;;;;;;40.73;35.95;;;38.20;48.80;;;;;;1899319;74;21169;-74
2023/04/18 07:07:51;;;;;;;39.88;35.78;;;38.20;48.60;;;;;;1907638;74;21206;-74
2023/04/18 07:10:23;;;;;;;43.28;36.00;;;38.20;48.60;;;;;;1904347;74;21193;-75
2023/04/18 07:12:54;;;;;;;40.95;35.03;;;38.20;48.30;;;;;;1892591;75;21137;-75
2023/04/18 07:15:25;;;;;;;38.98;34.83;;;38.20;48.50;;;;;;1890366;75;21194;-75
2023/04/18 07:17:56;;;;;;;37.93;34.23;;;38.20;48.00;;;;;;1881014;76;21135;-75
2023/04/18 07:20:28;;;;;;;38.63;34.67;;;38.20;48.70;;;;;;1879576;76;21088;-75
2023/04/18 07:22:59;;;;;;;39.18;34.67;;;38.20;48.30;;;;;;1907966;74;21104;-74
2023/04/18 07:25:31;;;;;;;47.27;34.83;;;38.20;48.00;;;;;;1910189;74;21209;-75
2023/04/18 07:28:03;;;;;;;39.70;35.20;;;38.20;48.40;;;;;;1909857;74;21551;-75
2023/04/18 07:30:34;;;;;;;38.20;34.40;;;38.20;48.20;;;;;;1885390;76;21589;-75
2023/04/18 07:33:05;;;;;;;39.15;34.63;;;38.20;48.40;;;;;;1906550;74;21586;-75
2023/04/18 07:35:39;;;;;;;40.90;35.98;;;38.20;48.50;;;;;;1884887;76;21637;-74
2023/04/18 07:38:10;;;;;;;39.05;34.98;;;38.20;48.00;;;;;;1909867;74;21213;-76
2023/04/18 07:40:41;;;;;;;40.43;34.98;;;38.20;47.70;;;;;;1912410;74;21610;-75
2023/04/18 07:43:13;;;;;;;38.48;34.48;;;38.20;48.60;;;;;;1906849;74;21138;-76
2023/04/18 07:45:44;;;;;;;40.85;34.08;;;38.10;48.10;;;;;;1902570;74;21601;-76
2023/04/18 07:48:16;;;;;;;38.48;34.63;;;38.20;48.80;;;;;;1884880;76;21221;-73
2023/04/18 07:50:48;;;;;;;39.05;34.92;;;38.20;47.50;;;;;;1902562;74;21131;-74
2023/04/18 07:53:19;;;;;;;36.73;32.90;;;38.20;47.80;;;;;;1884534;75;21233;-76
2023/04/18 07:55:51;;;;;;;37.60;33.80;;;38.30;47.30;;;;;;1888622;76;21175;-76
2023/04/18 07:58:22;;;;;;;37.60;33.58;;;38.30;47.80;;;;;;1900067;74;21083;-75
2023/04/18 08:00:54;;;;;;;39.55;34.88;;;38.30;47.70;;;;;;1862068;76;21144;-76
2023/04/18 08:03:26;;;;;;;39.03;35.05;;;38.30;48.90;;;;;;1913259;75;21096;-76
2023/04/18 08:05:57;;;;;;;38.78;34.80;;;38.20;47.30;;;;;;1886854;75;21151;-77
2023/04/18 08:08:29;;;;;;;37.73;33.50;;;38.20;47.40;;;;;;1913690;74;21150;-75
2023/04/18 08:11:01;;;;;;;36.90;33.00;;;38.20;47.30;;;;;;1904519;74;21531;-74
2023/04/18 08:13:32;;;;;;;37.30;33.35;;;38.20;47.40;;;;;;1950969;72;21112;-75
2023/04/18 08:16:04;;;;;;;37.20;33.60;;;38.20;47.40;;;;;;1901290;74;21473;-74
2023/04/18 08:18:36;;;;;;;40.15;33.67;;;38.20;47.50;;;;;;1916473;74;21131;-75
2023/04/18 08:21:08;;;;;;;37.53;34.00;;;38.20;47.60;;;;;;1922004;74;21155;-75
2023/04/18 08:23:39;;;;;;;38.78;34.33;;;38.30;46.60;;;;;;1893330;74;21099;-75
2023/04/18 08:26:10;;;;;;;38.65;33.85;;;38.30;46.50;;;;;;1888059;76;21214;-75
2023/04/18 08:28:42;;;;;;;37.53;33.80;;;38.30;46.70;;;;;;1891138;75;21110;-75
2023/04/18 08:31:15;;;;;;;37.28;33.42;;;38.30;46.40;;;;;;1881743;76;21236;-75
2023/04/18 08:33:46;;;;;;;37.65;33.85;;;38.30;46.50;;;;;;1885126;76;21175;-75
2023/04/18 08:36:18;;;;;;;37.78;34.10;;;38.30;46.30;;;;;;1886307;76;21221;-75
2023/04/18 08:38:49;;;;;;;37.55;33.58;;;38.30;46.90;;;;;;1860422;76;21119;-76
2023/04/18 08:41:22;;;;;;;37.88;33.98;;;38.30;46.70;;;;;;1887618;76;21134;-75
2023/04/18 08:43:54;;;;;;;38.78;34.85;;;38.30;46.10;;;;;;1880745;76;21415;-74
2023/04/18 08:46:26;;;;;;;38.95;33.25;;;38.30;45.40;;;;;;1879334;76;21099;-75
2023/04/18 08:48:58;;;;;;;38.38;32.38;;;38.30;46.60;;;;;;1872632;76;21142;-76
2023/04/18 08:51:32;;;;;;;37.63;33.63;;;38.20;46.60;;;;;;1884479;76;21200;-74
2023/04/18 08:54:05;;;;;;;37.23;33.40;;;38.20;46.30;;;;;;1887120;76;21118;-75
2023/04/18 08:56:36;;;;;;;37.30;33.23;;;38.20;46.50;;;;;;1888214;76;21212;-75
2023/04/18 08:59:08;;;;;;;37.50;33.60;;;38.20;46.30;;;;;;1883428;75;21539;-74
2023/04/18 09:01:55;;;;;;;35.78;32.08;;;38.20;46.20;;;;;;1879588;76;21151;-76
2023/04/18 09:04:41;;;;;;;36.77;33.02;;;38.20;46.60;;;;;;1873619;76;21100;-75
2023/04/18 09:07:14;;;;;;;36.85;32.53;;;38.20;46.70;;;;;;1905244;75;21189;-74
2023/04/18 09:09:53;;;;;;;36.83;32.83;;;38.20;46.30;;;;;;1995525;71;21109;-74
2023/04/18 09:12:26;;;;;;;35.43;31.62;;;38.10;45.70;;;;;;1975963;72;21170;-74
2023/04/18 09:15:14;;;;;;;37.23;33.42;;;38.10;45.90;;;;;;1963717;72;21119;-74
2023/04/18 09:17:50;;;;;;;35.58;32.15;;;38.10;45.70;;;;;;1914124;75;21147;-75
2023/04/18 09:20:39;;;;;;;35.88;32.35;;;38.00;46.20;;;;;;1907732;75;21704;-74
2023/04/18 09:23:15;;;;;;;36.28;32.40;;;38.10;46.90;;;;;;1859789;76;21527;-75
2023/04/18 09:25:48;;;;;;;35.55;31.97;;;38.00;46.60;;;;;;1895613;75;21075;-73
2023/04/18 09:28:30;;;;;;;35.08;31.70;;;38.00;46.50;;;;;;1952869;72;21217;-75
2023/04/18 09:31:14;;;;;;;41.65;33.70;;;38.00;47.00;;;;;;1956167;72;21232;-75
2023/04/18 09:33:55;;;;;;;38.73;32.75;;;38.00;46.90;;;;;;1969116;72;21111;-74
2023/04/18 09:36:27;;;;;;;36.83;32.90;;;37.90;46.80;;;;;;1955771;72;21084;-74
2023/04/18 09:38:58;;;;;;;37.20;32.10;;;38.00;46.60;;;;;;1965705;72;21140;-75
2023/04/18 09:41:32;;;;;;;36.70;32.93;;;38.00;46.70;;;;;;1944729;72;21556;-74
2023/04/18 09:44:11;;;;;;;35.25;31.73;;;37.90;46.90;;;;;;1958195;72;21601;-75
2023/04/18 09:46:45;;;;;;;35.68;31.85;;;37.90;46.20;;;;;;1953589;72;21172;-75
2023/04/18 09:49:19;;;;;;;36.40;32.67;;;37.90;46.40;;;;;;1956772;72;21164;-76
2023/04/18 09:51:54;;;;;;;35.13;31.27;;;37.90;46.10;;;;;;1958778;72;21143;-74
2023/04/18 09:54:27;;;;;;;35.35;31.33;;;37.90;46.20;;;;;;1963217;72;21653;-74
2023/04/18 09:56:59;;;;;;;35.80;32.05;;;37.90;45.60;;;;;;1910621;75;21236;-76
2023/04/18 09:59:39;;;;;;;37.15;32.00;;;37.90;46.20;;;;;;1876737;76;21188;-74
2023/04/18 10:02:13;;;;;;;35.25;31.68;;;37.90;46.10;;;;;;1959284;72;21131;-74
2023/04/18 10:04:46;;;;;;;38.40;32.78;;;37.80;45.80;;;;;;1901905;75;21179;-74
2023/04/18 10:07:17;;;;;;;36.50;32.33;;;37.80;46.20;;;;;;1900533;75;21116;-74
2023/04/18 10:09:50;;;;;;;35.60;31.87;;;37.80;46.20;;;;;;1962489;72;21181;-74
2023/04/18 10:12:21;;;;;;;36.48;32.75;;;37.70;45.50;;;;;;1967753;72;21489;-75
2023/04/18 10:14:54;;;;;;;37.10;32.93;;;37.70;46.20;;;;;;1965540;72;21111;-74
2023/04/18 10:17:27;;;;;;;38.35;32.63;;;37.70;46.20;;;;;;1956964;72;21572;-74
2023/04/18 10:20:11;;;;;;;35.08;31.50;;;37.70;46.20;;;;;;1961115;72;21212;-74
2023/04/18 10:22:38;;;;;;;36.73;32.75;;;37.60;45.60;;;;;;1958885;72;21097;-75
2023/04/18 10:25:10;;;;;;;35.88;32.23;;;37.60;45.80;;;;;;1950565;72;21091;-76
2023/04/18 10:27:56;;;;;;;36.30;32.35;;;37.60;46.50;;;;;;1960201;72;21061;-75
2023/04/18 10:30:48;;;;;;;42.43;31.57;;;37.60;46.10;;;;;;1934107;72;21521;-73
2023/04/18 10:33:32;;;;;;;44.67;35.73;;;37.50;46.70;;;;;;1932194;72;21515;-74
2023/04/18 10:36:04;;;;;;;35.20;31.62;;;37.50;46.30;;;;;;1960803;72;21118;-76
2023/04/18 10:38:44;;;;;;;38.30;31.70;;;37.50;46.80;;;;;;1946624;72;21181;-75
2023/04/18 10:41:21;;;;;;;40.63;34.85;;;37.50;46.80;;;;;;1963023;72;21602;-75
2023/04/18 10:44:13;;;;;;;34.10;30.70;;;37.50;47.30;;;;;;1966050;72;21172;-75
2023/04/18 10:47:00;;;;;;;34.60;30.92;;;37.40;47.40;;;;;;1952960;72;21662;-74
2023/04/18 10:49:32;;;;;;;36.20;32.45;;;37.40;47.50;;;;;;1965252;72;21578;-76
2023/04/18 10:52:04;;;;;;;40.15;33.38;;;37.40;47.30;;;;;;1954062;72;21528;-74
2023/04/18 10:55:01;;;;;;;44.48;35.15;;;37.30;47.30;;;;;;1969186;72;21673;-75
2023/04/18 10:57:47;;;;;;;40.30;34.27;;;37.30;47.20;;;;;;1961229;72;21061;-77
2023/04/18 11:00:20;;;;;;;42.38;33.02;;;37.30;47.10;;;;;;1967613;72;21129;-77
2023/04/18 11:02:55;;;;;;;43.52;31.77;;;37.30;47.40;;;;;;1967878;71;21193;-77
2023/04/18 11:05:28;;;;;;;37.55;31.42;;;37.30;47.30;;;;;;1964114;72;21650;-77
2023/04/18 11:07:59;;;;;;;35.33;31.52;;;37.20;46.90;;;;;;1953449;72;21592;-77
2023/04/18 11:10:31;;;;;;;38.40;31.77;;;37.30;47.30;;;;;;1957230;72;21594;-77
2023/04/18 11:13:05;;;;;;;36.50;32.60;;;37.20;47.00;;;;;;1903369;75;21144;-77
2023/04/18 11:15:38;;;;;;;35.75;32.03;;;37.20;47.20;;;;;;1894791;75;21623;-78
2023/04/18 11:18:10;;;;;;;36.95;32.98;;;37.10;47.50;;;;;;1900896;75;21086;-80
2023/04/18 11:20:49;;;;;;;37.17;31.80;;;37.00;47.40;;;;;;1903287;75;21682;-82
2023/04/18 11:23:23;;;;;;;38.08;33.38;;;37.00;47.40;;;;;;1893713;75;21167;-81
2023/04/18 11:25:55;;;;;;;39.18;32.08;;;37.00;47.80;;;;;;1908696;75;21192;-84
2023/04/18 11:28:27;;;;;;;43.08;36.05;;;36.90;48.00;;;;;;1903270;75;21225;-84
2023/04/18 11:31:02;;;;;;;36.88;32.10;;;36.90;48.10;;;;;;1904490;75;21115;-84
2023/04/18 11:33:33;;;;;;;37.90;34.00;;;36.90;48.20;;;;;;1910626;75;21155;-83
2023/04/18 11:36:04;;;;;;;36.75;32.48;;;36.90;48.40;;;;;;1902213;75;21794;-82
2023/04/18 11:38:37;;;;;;;41.48;34.90;;;36.80;48.50;;;;;;1912939;75;21190;-83
2023/04/18 11:41:13;;;;;;;38.78;32.90;;;36.80;48.70;;;;;;1894522;75;21450;-85
2023/04/18 11:43:43;;;;;;;;;;;36.80;48.60;;;;;;1892803;75;21599;-82
2023/04/18 11:46:14;;;;;;;39.55;31.93;;;36.80;49.00;;;;;;1896881;75;20234;-83
2023/04/18 11:48:46;;;;;;;41.83;33.48;;;36.80;48.80;;;;;;1899834;75;21482;-83
2023/04/18 11:51:45;;;;;;;35.92;32.30;;;36.80;48.80;;;;;;1903924;75;21194;-84
2023/04/18 11:54:37;;;;;;;41.20;35.60;;;36.70;49.00;;;;;;1900077;75;21201;-84
2023/04/18 11:57:20;;;;;;;38.50;34.40;;;36.70;49.00;;;;;;1907739;75;21134;-84
2023/04/18 11:59:53;;;;;;;43.58;34.63;;;36.60;49.00;;;;;;1899787;74;21119;-85
2023/04/18 12:02:29;;;;;;;45.52;37.10;;;36.60;49.10;;;;;;1900074;75;21147;-86
2023/04/18 12:05:01;;;;;;;39.65;35.48;;;36.60;49.30;;;;;;1893009;75;21088;-86
2023/04/18 12:07:41;;;;;;;40.45;36.05;;;36.60;49.30;;;;;;1911062;75;21118;-85
2023/04/18 12:10:23;;;;;;;44.13;34.45;;;36.50;49.40;;;;;;1895804;75;21744;-84
2023/04/18 12:12:57;;;;;;;48.42;36.45;;;36.40;49.30;;;;;;1902139;75;21222;-84
2023/04/18 12:15:30;;;;;;;39.88;34.53;;;36.40;49.30;;;;;;1917363;75;21104;-84
2023/04/18 12:18:07;;;;;;;39.45;35.35;;;36.50;49.30;;;;;;1904832;75;21085;-82
2023/04/18 12:20:44;;;;;;;40.00;34.60;;;36.40;49.30;;;;;;1907049;75;21194;-83
2023/04/18 12:23:33;;;;;;;42.90;32.85;;;36.40;49.30;;;;;;1902885;75;21207;-84
2023/04/18 12:26:05;;;;;;;43.05;33.70;;;36.40;49.40;;;;;;1905154;75;21120;-85
2023/04/18 12:28:37;;;;;;;38.83;34.60;;;36.30;49.30;;;;;;1900739;75;21175;-85
2023/04/18 12:31:09;;;;;;;40.20;33.63;;;36.30;49.40;;;;;;1909398;75;21131;-84
2023/04/18 12:33:41;;;;;;;40.52;34.60;;;36.30;49.60;;;;;;1892513;75;21088;-84
2023/04/18 12:36:12;;;;;;;39.65;34.73;;;36.30;49.50;;;;;;1907134;75;21803;-83
2023/04/18 12:38:43;;;;;;;48.13;37.03;;;36.30;49.60;;;;;;1903249;75;21151;-85
2023/04/18 12:41:14;;;;;;;40.65;34.08;;;36.30;49.90;;;;;;1900976;75;21187;-82
2023/04/18 12:43:45;;;;;;;44.88;34.67;;;36.20;49.80;;;;;;1898953;75;21112;-85
2023/04/18 12:46:16;;;;;;;39.25;34.08;;;36.20;49.80;;;;;;1905499;75;21603;-83
2023/04/18 12:48:48;;;;;;;40.67;34.20;;;36.20;50.00;;;;;;1905484;75;21583;-84
2023/04/18 12:51:20;;;;;;;37.40;33.35;;;36.20;50.00;;;;;;1903417;75;21128;-84
2023/04/18 12:53:51;;;;;;;42.08;35.58;;;36.20;50.00;;;;;;1916315;75;21070;-84
2023/04/18 12:56:22;;;;;;;41.68;34.43;;;36.10;50.10;;;;;;1978648;72;21113;-84
2023/04/18 12:58:56;;;;;;;37.67;33.45;;;36.10;50.30;;;;;;1966978;72;21155;-84
2023/04/18 13:01:29;;;;;;;40.67;36.48;;;36.10;50.40;;;;;;1961098;72;21165;-83
2023/04/18 13:04:00;;;;;;;42.60;35.23;;;36.10;50.60;;;;;;1978778;72;21708;-83
2023/04/18 13:06:32;;;;;;;44.75;35.50;;;36.10;50.70;;;;;;1964532;71;21119;-83
2023/04/18 13:09:04;;;;;;;42.00;35.85;;;36.10;51.10;;;;;;1967948;72;21669;-85
2023/04/18 13:11:35;;;;;;;39.98;35.03;;;36.10;51.10;;;;;;1945638;72;21114;-83
2023/04/18 13:14:06;;;;;;;41.20;34.08;;;36.00;51.30;;;;;;1978369;72;21108;-84
2023/04/18 13:16:37;;;;;;;40.80;35.23;;;36.00;51.60;;;;;;1960670;72;21036;-85
2023/04/18 13:19:10;;;;;;;38.58;34.80;;;35.90;51.70;;;;;;1969926;72;21561;-84
2023/04/18 13:21:42;;;;;;;43.95;36.23;;;36.00;51.20;;;;;;1973522;72;21185;-84
2023/04/18 13:24:13;;;;;;;43.63;36.40;;;35.90;51.90;;;;;;1947806;72;21160;-85
2023/04/18 13:26:44;;;;;;;42.88;36.30;;;35.90;52.00;;;;;;1941036;72;21152;-83
2023/04/18 13:29:15;;;;;;;40.58;36.17;;;35.90;52.20;;;;;;1964784;72;21096;-84
2023/04/18 13:31:46;;;;;;;41.75;35.15;;;35.80;52.40;;;;;;1976023;72;21551;-83
2023/04/18 13:34:19;;;;;;;39.33;35.25;;;35.80;52.40;;;;;;1967595;72;21182;-84
2023/04/18 13:36:50;;;;;;;39.60;35.38;;;35.70;52.40;;;;;;1966064;71;21088;-83
2023/04/18 13:39:23;;;;;;;48.17;36.88;;;35.70;53.10;;;;;;1954389;72;21116;-83
2023/04/18 13:41:54;;;;;;;40.43;36.10;;;35.70;52.70;;;;;;1956239;72;21055;-82